sensor_id;sensor_type;location;lat;lon;timestamp;P1;durP1;ratioP1;P2;durP2;ratioP2
31716;SDS011;18301;51.076;17.046;2022-09-27T00:03:16;26.88;;;17.92;;
31716;SDS011;18301;51.076;17.046;2022-09-27T00:08:18;23.45;;;15.52;;
31716;SDS011;18301;51.076;17.046;2022-09-27T00:13:20;27.92;;;17.48;;
31716;SDS011;18301;51.076;17.046;2022-09-27T00:18:21;29.15;;;16.60;;
31716;SDS011;18301;51.076;17.046;2022-09-27T00:23:23;25.65;;;16.63;;
31716;SDS011;18301;51.076;17.046;2022-09-27T00:28:25;27.40;;;17.02;;
31716;SDS011;18301;51.076;17.046;2022-09-27T00:33:26;25.33;;;15.98;;
31716;SDS011;18301;51.076;17.046;2022-09-27T00:38:28;23.48;;;15.27;;
31716;SDS011;18301;51.076;17.046;2022-09-27T00:43:42;24.45;;;16.45;;
31716;SDS011;18301;51.076;17.046;2022-09-27T00:48:45;33.17;;;16.88;;
31716;SDS011;18301;51.076;17.046;2022-09-27T00:53:49;26.88;;;15.88;;
31716;SDS011;18301;51.076;17.046;2022-09-27T01:04:34;24.55;;;15.98;;
31716;SDS011;18301;51.076;17.046;2022-09-27T01:09:38;25.17;;;16.15;;
31716;SDS011;18301;51.076;17.046;2022-09-27T01:20:22;27.08;;;17.15;;
31716;SDS011;18301;51.076;17.046;2022-09-27T01:36:08;24.95;;;15.88;;
31716;SDS011;18301;51.076;17.046;2022-09-27T01:46:39;27.63;;;16.13;;
31716;SDS011;18301;51.076;17.046;2022-09-27T01:52:01;26.70;;;16.13;;
31716;SDS011;18301;51.076;17.046;2022-09-27T01:57:06;25.25;;;15.75;;
31716;SDS011;18301;51.076;17.046;2022-09-27T02:02:10;26.95;;;15.85;;
31716;SDS011;18301;51.076;17.046;2022-09-27T02:07:16;26.27;;;15.68;;
31716;SDS011;18301;51.076;17.046;2022-09-27T02:12:24;25.33;;;15.13;;
31716;SDS011;18301;51.076;17.046;2022-09-27T02:23:18;23.15;;;14.82;;
31716;SDS011;18301;51.076;17.046;2022-09-27T02:33:50;26.77;;;15.60;;
31716;SDS011;18301;51.076;17.046;2022-09-27T02:38:56;25.50;;;14.70;;
31716;SDS011;18301;51.076;17.046;2022-09-27T02:43:59;25.33;;;15.25;;
31716;SDS011;18301;51.076;17.046;2022-09-27T02:55:12;20.55;;;13.75;;
31716;SDS011;18301;51.076;17.046;2022-09-27T02:59:52;23.48;;;15.25;;
31716;SDS011;18301;51.076;17.046;2022-09-27T03:05:19;23.75;;;14.88;;
31716;SDS011;18301;51.076;17.046;2022-09-27T03:10:25;23.90;;;14.60;;
31716;SDS011;18301;51.076;17.046;2022-09-27T03:15:28;25.75;;;14.20;;
31716;SDS011;18301;51.076;17.046;2022-09-27T03:20:30;23.75;;;14.70;;
31716;SDS011;18301;51.076;17.046;2022-09-27T03:25:31;19.85;;;13.93;;
31716;SDS011;18301;51.076;17.046;2022-09-27T03:30:33;23.50;;;13.52;;
31716;SDS011;18301;51.076;17.046;2022-09-27T03:35:36;20.50;;;14.23;;
31716;SDS011;18301;51.076;17.046;2022-09-27T03:40:38;25.38;;;14.10;;
31716;SDS011;18301;51.076;17.046;2022-09-27T03:45:41;19.65;;;12.98;;
31716;SDS011;18301;51.076;17.046;2022-09-27T03:50:45;20.38;;;12.90;;
31716;SDS011;18301;51.076;17.046;2022-09-27T03:55:46;19.55;;;12.77;;
31716;SDS011;18301;51.076;17.046;2022-09-27T04:00:48;20.88;;;13.13;;
31716;SDS011;18301;51.076;17.046;2022-09-27T04:05:50;21.63;;;13.68;;
31716;SDS011;18301;51.076;17.046;2022-09-27T04:10:52;21.27;;;13.00;;
31716;SDS011;18301;51.076;17.046;2022-09-27T04:15:53;19.60;;;13.52;;
31716;SDS011;18301;51.076;17.046;2022-09-27T04:20:55;20.20;;;12.88;;
31716;SDS011;18301;51.076;17.046;2022-09-27T04:25:56;20.33;;;13.45;;
31716;SDS011;18301;51.076;17.046;2022-09-27T04:30:58;19.67;;;12.68;;
31716;SDS011;18301;51.076;17.046;2022-09-27T04:36:00;21.00;;;13.48;;
31716;SDS011;18301;51.076;17.046;2022-09-27T04:41:20;20.77;;;13.48;;
31716;SDS011;18301;51.076;17.046;2022-09-27T04:46:24;22.90;;;13.63;;
31716;SDS011;18301;51.076;17.046;2022-09-27T04:51:27;21.40;;;13.85;;
31716;SDS011;18301;51.076;17.046;2022-09-27T04:56:29;22.08;;;13.68;;
31716;SDS011;18301;51.076;17.046;2022-09-27T05:01:30;23.88;;;14.18;;
31716;SDS011;18301;51.076;17.046;2022-09-27T05:06:32;23.55;;;14.05;;
31716;SDS011;18301;51.076;17.046;2022-09-27T05:11:33;22.63;;;13.88;;
31716;SDS011;18301;51.076;17.046;2022-09-27T05:16:38;20.50;;;12.30;;
31716;SDS011;18301;51.076;17.046;2022-09-27T05:21:39;21.52;;;12.93;;
31716;SDS011;18301;51.076;17.046;2022-09-27T05:26:41;19.38;;;13.02;;
31716;SDS011;18301;51.076;17.046;2022-09-27T05:31:43;20.13;;;12.57;;
31716;SDS011;18301;51.076;17.046;2022-09-27T05:36:47;22.45;;;13.10;;
31716;SDS011;18301;51.076;17.046;2022-09-27T05:41:49;19.15;;;12.20;;
31716;SDS011;18301;51.076;17.046;2022-09-27T05:46:56;19.48;;;12.25;;
31716;SDS011;18301;51.076;17.046;2022-09-27T05:52:00;19.27;;;12.75;;
31716;SDS011;18301;51.076;17.046;2022-09-27T05:57:02;17.45;;;11.40;;
31716;SDS011;18301;51.076;17.046;2022-09-27T06:02:03;17.35;;;11.95;;
31716;SDS011;18301;51.076;17.046;2022-09-27T06:07:05;26.45;;;15.90;;
31716;SDS011;18301;51.076;17.046;2022-09-27T06:12:07;20.75;;;13.15;;
31716;SDS011;18301;51.076;17.046;2022-09-27T06:17:12;20.77;;;13.82;;
31716;SDS011;18301;51.076;17.046;2022-09-27T06:22:13;24.67;;;14.27;;
31716;SDS011;18301;51.076;17.046;2022-09-27T06:27:15;25.38;;;14.32;;
31716;SDS011;18301;51.076;17.046;2022-09-27T06:32:17;16.40;;;10.95;;
31716;SDS011;18301;51.076;17.046;2022-09-27T06:37:19;17.52;;;11.55;;
31716;SDS011;18301;51.076;17.046;2022-09-27T06:42:20;18.52;;;11.88;;
31716;SDS011;18301;51.076;17.046;2022-09-27T06:47:22;20.10;;;12.35;;
31716;SDS011;18301;51.076;17.046;2022-09-27T06:52:25;17.05;;;11.55;;
31716;SDS011;18301;51.076;17.046;2022-09-27T06:57:27;18.80;;;11.77;;
31716;SDS011;18301;51.076;17.046;2022-09-27T07:02:46;18.95;;;12.45;;
31716;SDS011;18301;51.076;17.046;2022-09-27T07:07:48;18.13;;;12.02;;
31716;SDS011;18301;51.076;17.046;2022-09-27T07:12:50;15.77;;;11.40;;
31716;SDS011;18301;51.076;17.046;2022-09-27T07:17:56;17.83;;;11.38;;
31716;SDS011;18301;51.076;17.046;2022-09-27T07:22:59;17.80;;;11.38;;
31716;SDS011;18301;51.076;17.046;2022-09-27T07:28:01;17.40;;;11.38;;
31716;SDS011;18301;51.076;17.046;2022-09-27T07:33:05;16.55;;;11.30;;
31716;SDS011;18301;51.076;17.046;2022-09-27T07:38:07;20.77;;;12.60;;
31716;SDS011;18301;51.076;17.046;2022-09-27T07:43:12;22.27;;;12.13;;
31716;SDS011;18301;51.076;17.046;2022-09-27T07:48:14;17.02;;;11.10;;
31716;SDS011;18301;51.076;17.046;2022-09-27T07:53:16;15.48;;;10.48;;
31716;SDS011;18301;51.076;17.046;2022-09-27T07:58:18;14.82;;;10.27;;
31716;SDS011;18301;51.076;17.046;2022-09-27T08:03:21;17.73;;;11.18;;
31716;SDS011;18301;51.076;17.046;2022-09-27T08:08:22;15.00;;;9.75;;
31716;SDS011;18301;51.076;17.046;2022-09-27T08:13:24;17.05;;;11.07;;
31716;SDS011;18301;51.076;17.046;2022-09-27T08:18:26;15.68;;;10.98;;
31716;SDS011;18301;51.076;17.046;2022-09-27T08:23:27;17.77;;;10.98;;
31716;SDS011;18301;51.076;17.046;2022-09-27T08:28:29;18.55;;;10.80;;
31716;SDS011;18301;51.076;17.046;2022-09-27T08:33:32;17.48;;;10.75;;
31716;SDS011;18301;51.076;17.046;2022-09-27T08:38:40;21.75;;;11.60;;
31716;SDS011;18301;51.076;17.046;2022-09-27T08:43:47;14.68;;;10.10;;
31716;SDS011;18301;51.076;17.046;2022-09-27T08:49:26;16.13;;;10.63;;
31716;SDS011;18301;51.076;17.046;2022-09-27T08:54:36;15.70;;;11.10;;
31716;SDS011;18301;51.076;17.046;2022-09-27T08:59:42;18.30;;;11.23;;
31716;SDS011;18301;51.076;17.046;2022-09-27T09:04:51;15.23;;;10.30;;
31716;SDS011;18301;51.076;17.046;2022-09-27T09:10:06;15.85;;;11.00;;
31716;SDS011;18301;51.076;17.046;2022-09-27T09:15:20;18.85;;;12.88;;
31716;SDS011;18301;51.076;17.046;2022-09-27T09:26:17;18.30;;;12.25;;
31716;SDS011;18301;51.076;17.046;2022-09-27T09:37:33;16.38;;;11.43;;
31716;SDS011;18301;51.076;17.046;2022-09-27T09:42:37;16.80;;;11.35;;
31716;SDS011;18301;51.076;17.046;2022-09-27T09:47:50;16.63;;;10.70;;
31716;SDS011;18301;51.076;17.046;2022-09-27T09:53:16;16.05;;;11.10;;
31716;SDS011;18301;51.076;17.046;2022-09-27T10:03:33;13.45;;;8.90;;
31716;SDS011;18301;51.076;17.046;2022-09-27T10:08:35;13.35;;;8.18;;
31716;SDS011;18301;51.076;17.046;2022-09-27T10:13:36;16.95;;;11.02;;
31716;SDS011;18301;51.076;17.046;2022-09-27T10:18:38;15.18;;;10.32;;
31716;SDS011;18301;51.076;17.046;2022-09-27T10:29:31;14.68;;;10.57;;
31716;SDS011;18301;51.076;17.046;2022-09-27T10:34:39;15.27;;;10.43;;
31716;SDS011;18301;51.076;17.046;2022-09-27T10:39:43;15.07;;;10.27;;
31716;SDS011;18301;51.076;17.046;2022-09-27T10:44:46;12.23;;;9.07;;
31716;SDS011;18301;51.076;17.046;2022-09-27T10:49:48;14.75;;;10.07;;
31716;SDS011;18301;51.076;17.046;2022-09-27T10:55:07;15.95;;;10.25;;
31716;SDS011;18301;51.076;17.046;2022-09-27T11:00:25;15.18;;;10.45;;
31716;SDS011;18301;51.076;17.046;2022-09-27T11:05:29;15.18;;;10.50;;
31716;SDS011;18301;51.076;17.046;2022-09-27T11:10:34;14.82;;;10.63;;
31716;SDS011;18301;51.076;17.046;2022-09-27T11:15:41;13.95;;;9.75;;
31716;SDS011;18301;51.076;17.046;2022-09-27T11:20:58;11.55;;;8.95;;
31716;SDS011;18301;51.076;17.046;2022-09-27T11:41:47;19.75;;;12.73;;
31716;SDS011;18301;51.076;17.046;2022-09-27T12:13:56;10.75;;;7.63;;
31716;SDS011;18301;51.076;17.046;2022-09-27T12:19:03;10.15;;;6.57;;
31716;SDS011;18301;51.076;17.046;2022-09-27T12:24:14;10.60;;;6.93;;
31716;SDS011;18301;51.076;17.046;2022-09-27T12:29:21;12.13;;;8.10;;
31716;SDS011;18301;51.076;17.046;2022-09-27T12:34:38;10.00;;;7.43;;
31716;SDS011;18301;51.076;17.046;2022-09-27T12:40:05;9.45;;;6.72;;
31716;SDS011;18301;51.076;17.046;2022-09-27T12:45:22;9.70;;;6.20;;
31716;SDS011;18301;51.076;17.046;2022-09-27T12:51:29;9.23;;;6.80;;
31716;SDS011;18301;51.076;17.046;2022-09-27T13:17:01;9.20;;;6.18;;
31716;SDS011;18301;51.076;17.046;2022-09-27T13:22:05;10.80;;;5.97;;
31716;SDS011;18301;51.076;17.046;2022-09-27T13:32:22;10.15;;;6.65;;
31716;SDS011;18301;51.076;17.046;2022-09-27T13:47:56;10.70;;;6.47;;
31716;SDS011;18301;51.076;17.046;2022-09-27T14:03:22;8.73;;;6.07;;
31716;SDS011;18301;51.076;17.046;2022-09-27T14:08:44;9.63;;;6.63;;
31716;SDS011;18301;51.076;17.046;2022-09-27T14:13:49;12.45;;;8.05;;
31716;SDS011;18301;51.076;17.046;2022-09-27T14:18:53;11.80;;;7.60;;
31716;SDS011;18301;51.076;17.046;2022-09-27T14:24:19;10.18;;;6.82;;
31716;SDS011;18301;51.076;17.046;2022-09-27T14:29:32;8.80;;;6.53;;
31716;SDS011;18301;51.076;17.046;2022-09-27T14:34:39;10.20;;;6.75;;
31716;SDS011;18301;51.076;17.046;2022-09-27T14:39:41;11.18;;;7.22;;
31716;SDS011;18301;51.076;17.046;2022-09-27T14:44:43;8.40;;;6.50;;
31716;SDS011;18301;51.076;17.046;2022-09-27T15:00:14;8.35;;;5.38;;
31716;SDS011;18301;51.076;17.046;2022-09-27T15:05:19;8.63;;;5.50;;
31716;SDS011;18301;51.076;17.046;2022-09-27T15:10:27;7.22;;;4.97;;
31716;SDS011;18301;51.076;17.046;2022-09-27T15:15:34;10.70;;;5.93;;
31716;SDS011;18301;51.076;17.046;2022-09-27T15:20:39;9.20;;;6.22;;
31716;SDS011;18301;51.076;17.046;2022-09-27T15:26:00;9.25;;;6.30;;
31716;SDS011;18301;51.076;17.046;2022-09-27T15:31:13;9.45;;;5.38;;
31716;SDS011;18301;51.076;17.046;2022-09-27T15:36:15;11.05;;;6.47;;
31716;SDS011;18301;51.076;17.046;2022-09-27T15:41:18;8.75;;;6.40;;
31716;SDS011;18301;51.076;17.046;2022-09-27T15:51:37;8.93;;;6.53;;
31716;SDS011;18301;51.076;17.046;2022-09-27T15:56:40;8.00;;;5.75;;
31716;SDS011;18301;51.076;17.046;2022-09-27T16:01:42;10.50;;;6.30;;
31716;SDS011;18301;51.076;17.046;2022-09-27T16:06:43;9.95;;;5.70;;
31716;SDS011;18301;51.076;17.046;2022-09-27T16:11:45;8.60;;;5.40;;
31716;SDS011;18301;51.076;17.046;2022-09-27T16:16:50;8.80;;;5.53;;
31716;SDS011;18301;51.076;17.046;2022-09-27T16:21:53;8.75;;;5.25;;
31716;SDS011;18301;51.076;17.046;2022-09-27T16:26:55;4.38;;;2.70;;
31716;SDS011;18301;51.076;17.046;2022-09-27T16:31:57;2.83;;;1.83;;
31716;SDS011;18301;51.076;17.046;2022-09-27T16:36:58;2.45;;;1.30;;
31716;SDS011;18301;51.076;17.046;2022-09-27T16:42:05;3.03;;;1.90;;
31716;SDS011;18301;51.076;17.046;2022-09-27T16:47:07;10.20;;;5.13;;
31716;SDS011;18301;51.076;17.046;2022-09-27T16:52:09;3.53;;;2.30;;
31716;SDS011;18301;51.076;17.046;2022-09-27T16:57:11;1.88;;;1.50;;
31716;SDS011;18301;51.076;17.046;2022-09-27T17:02:13;2.97;;;1.10;;
31716;SDS011;18301;51.076;17.046;2022-09-27T17:07:14;1.15;;;1.00;;
31716;SDS011;18301;51.076;17.046;2022-09-27T17:12:16;2.10;;;1.73;;
31716;SDS011;18301;51.076;17.046;2022-09-27T17:17:18;5.70;;;2.47;;
31716;SDS011;18301;51.076;17.046;2022-09-27T17:22:19;6.47;;;2.88;;
31716;SDS011;18301;51.076;17.046;2022-09-27T17:27:21;3.60;;;1.55;;
31716;SDS011;18301;51.076;17.046;2022-09-27T17:32:26;3.45;;;2.13;;
31716;SDS011;18301;51.076;17.046;2022-09-27T17:37:28;4.10;;;2.30;;
31716;SDS011;18301;51.076;17.046;2022-09-27T17:42:30;4.35;;;2.50;;
31716;SDS011;18301;51.076;17.046;2022-09-27T17:47:32;3.95;;;2.58;;
31716;SDS011;18301;51.076;17.046;2022-09-27T17:52:52;4.65;;;2.65;;
31716;SDS011;18301;51.076;17.046;2022-09-27T17:57:54;5.68;;;2.25;;
31716;SDS011;18301;51.076;17.046;2022-09-27T18:02:56;3.40;;;2.25;;
31716;SDS011;18301;51.076;17.046;2022-09-27T18:07:57;5.03;;;2.80;;
31716;SDS011;18301;51.076;17.046;2022-09-27T18:12:59;8.40;;;3.50;;
31716;SDS011;18301;51.076;17.046;2022-09-27T18:18:01;4.60;;;3.33;;
31716;SDS011;18301;51.076;17.046;2022-09-27T18:23:05;6.63;;;2.90;;
31716;SDS011;18301;51.076;17.046;2022-09-27T18:28:06;5.82;;;2.97;;
31716;SDS011;18301;51.076;17.046;2022-09-27T18:33:09;4.82;;;2.92;;
31716;SDS011;18301;51.076;17.046;2022-09-27T18:38:11;5.97;;;3.15;;
31716;SDS011;18301;51.076;17.046;2022-09-27T18:43:12;6.35;;;2.90;;
31716;SDS011;18301;51.076;17.046;2022-09-27T18:48:14;6.18;;;4.10;;
31716;SDS011;18301;51.076;17.046;2022-09-27T18:53:16;11.23;;;5.72;;
31716;SDS011;18301;51.076;17.046;2022-09-27T18:58:17;11.23;;;6.50;;
31716;SDS011;18301;51.076;17.046;2022-09-27T19:03:19;11.15;;;6.65;;
31716;SDS011;18301;51.076;17.046;2022-09-27T19:08:20;11.65;;;7.10;;
31716;SDS011;18301;51.076;17.046;2022-09-27T19:13:22;13.20;;;7.68;;
31716;SDS011;18301;51.076;17.046;2022-09-27T19:18:30;10.95;;;6.72;;
31716;SDS011;18301;51.076;17.046;2022-09-27T19:23:32;8.07;;;6.10;;
31716;SDS011;18301;51.076;17.046;2022-09-27T19:28:35;10.82;;;6.28;;
31716;SDS011;18301;51.076;17.046;2022-09-27T19:33:38;13.75;;;8.30;;
31716;SDS011;18301;51.076;17.046;2022-09-27T19:38:40;14.85;;;7.75;;
31716;SDS011;18301;51.076;17.046;2022-09-27T19:43:42;17.15;;;8.75;;
31716;SDS011;18301;51.076;17.046;2022-09-27T19:48:47;14.40;;;7.65;;
31716;SDS011;18301;51.076;17.046;2022-09-27T19:53:50;15.10;;;7.43;;
31716;SDS011;18301;51.076;17.046;2022-09-27T19:58:53;14.52;;;7.78;;
31716;SDS011;18301;51.076;17.046;2022-09-27T20:03:54;13.38;;;6.85;;
31716;SDS011;18301;51.076;17.046;2022-09-27T20:08:56;14.88;;;7.40;;
31716;SDS011;18301;51.076;17.046;2022-09-27T20:13:58;11.82;;;6.80;;
31716;SDS011;18301;51.076;17.046;2022-09-27T20:19:00;15.95;;;8.00;;
31716;SDS011;18301;51.076;17.046;2022-09-27T20:24:02;15.27;;;7.03;;
31716;SDS011;18301;51.076;17.046;2022-09-27T20:29:05;13.00;;;7.10;;
31716;SDS011;18301;51.076;17.046;2022-09-27T20:34:08;13.55;;;7.03;;
31716;SDS011;18301;51.076;17.046;2022-09-27T20:39:13;16.30;;;7.68;;
31716;SDS011;18301;51.076;17.046;2022-09-27T20:44:16;15.10;;;7.85;;
31716;SDS011;18301;51.076;17.046;2022-09-27T20:49:19;12.75;;;6.60;;
31716;SDS011;18301;51.076;17.046;2022-09-27T20:54:21;10.35;;;6.10;;
31716;SDS011;18301;51.076;17.046;2022-09-27T20:59:22;11.45;;;6.25;;
31716;SDS011;18301;51.076;17.046;2022-09-27T21:04:24;8.25;;;5.13;;
31716;SDS011;18301;51.076;17.046;2022-09-27T21:09:26;11.27;;;6.63;;
31716;SDS011;18301;51.076;17.046;2022-09-27T21:14:27;11.18;;;5.88;;
31716;SDS011;18301;51.076;17.046;2022-09-27T21:19:29;12.48;;;7.15;;
31716;SDS011;18301;51.076;17.046;2022-09-27T21:24:30;12.75;;;7.10;;
31716;SDS011;18301;51.076;17.046;2022-09-27T21:29:32;10.52;;;6.10;;
31716;SDS011;18301;51.076;17.046;2022-09-27T21:34:34;10.48;;;5.90;;
31716;SDS011;18301;51.076;17.046;2022-09-27T21:39:35;13.82;;;5.75;;
31716;SDS011;18301;51.076;17.046;2022-09-27T21:44:37;14.27;;;5.55;;
31716;SDS011;18301;51.076;17.046;2022-09-27T21:49:38;9.18;;;5.32;;
31716;SDS011;18301;51.076;17.046;2022-09-27T21:54:40;8.00;;;4.70;;
31716;SDS011;18301;51.076;17.046;2022-09-27T21:59:42;8.32;;;4.90;;
31716;SDS011;18301;51.076;17.046;2022-09-27T22:04:43;8.98;;;4.95;;
31716;SDS011;18301;51.076;17.046;2022-09-27T22:09:45;8.43;;;5.00;;
31716;SDS011;18301;51.076;17.046;2022-09-27T22:14:46;10.95;;;5.75;;
31716;SDS011;18301;51.076;17.046;2022-09-27T22:19:48;13.43;;;6.43;;
31716;SDS011;18301;51.076;17.046;2022-09-27T22:24:50;9.35;;;5.78;;
31716;SDS011;18301;51.076;17.046;2022-09-27T22:29:51;9.65;;;5.60;;
31716;SDS011;18301;51.076;17.046;2022-09-27T22:34:53;9.70;;;5.55;;
31716;SDS011;18301;51.076;17.046;2022-09-27T22:39:54;8.57;;;5.25;;
31716;SDS011;18301;51.076;17.046;2022-09-27T22:44:56;9.90;;;5.35;;
31716;SDS011;18301;51.076;17.046;2022-09-27T22:49:58;8.18;;;5.15;;
31716;SDS011;18301;51.076;17.046;2022-09-27T22:55:00;12.88;;;6.85;;
31716;SDS011;18301;51.076;17.046;2022-09-27T23:00:02;7.88;;;5.28;;
31716;SDS011;18301;51.076;17.046;2022-09-27T23:05:05;8.80;;;5.15;;
31716;SDS011;18301;51.076;17.046;2022-09-27T23:10:07;11.98;;;6.25;;
31716;SDS011;18301;51.076;17.046;2022-09-27T23:15:09;11.95;;;6.68;;
31716;SDS011;18301;51.076;17.046;2022-09-27T23:20:11;11.32;;;6.30;;
31716;SDS011;18301;51.076;17.046;2022-09-27T23:25:14;9.48;;;5.28;;
31716;SDS011;18301;51.076;17.046;2022-09-27T23:30:17;7.20;;;4.82;;
31716;SDS011;18301;51.076;17.046;2022-09-27T23:35:20;7.95;;;4.35;;
31716;SDS011;18301;51.076;17.046;2022-09-27T23:40:22;6.60;;;4.25;;
31716;SDS011;18301;51.076;17.046;2022-09-27T23:45:24;8.43;;;3.83;;
31716;SDS011;18301;51.076;17.046;2022-09-27T23:50:27;7.85;;;4.40;;
31716;SDS011;18301;51.076;17.046;2022-09-27T23:55:29;5.78;;;3.67;;
